createdAt,value
2017-10-17T00:00:50.476Z,32.70
2017-10-17T00:03:16.786Z,34.77
2017-10-17T00:05:43.061Z,37.40
2017-10-17T00:08:09.339Z,32.47
2017-10-17T00:10:35.645Z,31.40
2017-10-17T00:13:01.926Z,34.97
2017-10-17T00:15:28.195Z,35.93
2017-10-17T00:17:54.478Z,31.40
2017-10-17T00:20:20.735Z,43.87
2017-10-17T00:22:46.999Z,44.23
2017-10-17T00:25:13.281Z,28.57
2017-10-17T00:27:39.568Z,31.40
2017-10-17T00:30:05.850Z,41.97
2017-10-17T00:32:32.217Z,40.33
2017-10-17T00:34:58.485Z,38.27
2017-10-17T00:37:24.757Z,42.87
2017-10-17T00:39:51.027Z,34.00
2017-10-17T00:42:17.284Z,38.70
2017-10-17T00:44:43.545Z,37.13
2017-10-17T00:47:09.822Z,36.17
2017-10-17T00:49:36.105Z,58.93
2017-10-17T00:52:02.469Z,38.00
2017-10-17T00:54:28.747Z,33.87
2017-10-17T00:56:54.999Z,35.90
2017-10-17T00:59:21.264Z,41.60
2017-10-17T01:01:47.546Z,41.37
2017-10-17T01:04:13.799Z,34.57
2017-10-17T01:06:40.072Z,49.47
2017-10-17T01:09:06.332Z,35.47
2017-10-17T01:11:32.690Z,33.07
2017-10-17T01:13:58.974Z,35.67
2017-10-17T01:16:25.292Z,32.40
2017-10-17T01:18:51.545Z,38.27
2017-10-17T01:21:17.803Z,33.27
2017-10-17T01:23:44.094Z,32.27
2017-10-17T01:26:10.359Z,31.80
2017-10-17T01:28:36.699Z,26.77
2017-10-17T01:31:02.963Z,39.43
2017-10-17T01:33:29.223Z,31.03
2017-10-17T01:35:55.491Z,32.20
2017-10-17T01:38:21.768Z,37.23
2017-10-17T01:40:48.056Z,34.13
2017-10-17T01:43:14.343Z,35.53
2017-10-17T01:45:40.625Z,38.30
2017-10-17T01:48:06.903Z,30.13
2017-10-17T01:50:33.188Z,43.50
2017-10-17T01:52:59.525Z,36.00
2017-10-17T01:55:25.802Z,37.90
2017-10-17T01:57:52.082Z,42.67
2017-10-17T02:00:18.340Z,40.90
2017-10-17T02:02:44.610Z,40.43
2017-10-17T02:05:10.903Z,44.67
2017-10-17T02:07:37.192Z,49.07
2017-10-17T02:10:03.472Z,35.63
2017-10-17T02:12:29.769Z,35.33
2017-10-17T02:14:56.037Z,34.60
2017-10-17T02:17:22.384Z,39.10
2017-10-17T02:19:48.658Z,33.63
2017-10-17T02:22:14.931Z,36.77
2017-10-17T02:24:41.208Z,38.47
2017-10-17T02:27:07.472Z,36.10
2017-10-17T02:29:33.783Z,36.90
2017-10-17T02:32:00.069Z,32.93
2017-10-17T02:34:26.341Z,27.93
2017-10-17T02:36:52.647Z,28.97
2017-10-17T02:39:18.906Z,36.70
2017-10-17T02:41:45.176Z,52.57
2017-10-17T02:44:11.457Z,31.27
2017-10-17T02:46:37.743Z,63.17
2017-10-17T02:49:04.026Z,30.40
2017-10-17T02:51:30.301Z,37.83
2017-10-17T02:53:56.583Z,27.90
2017-10-17T02:56:22.858Z,31.00
2017-10-17T02:58:49.116Z,30.47
2017-10-17T03:01:15.475Z,30.93
2017-10-17T03:03:41.745Z,34.90
2017-10-17T03:06:07.990Z,36.10
2017-10-17T03:08:34.265Z,33.97
2017-10-17T03:11:00.546Z,29.70
2017-10-17T03:13:26.986Z,29.73
2017-10-17T03:15:53.279Z,25.20
2017-10-17T03:18:19.561Z,24.30
2017-10-17T03:20:45.819Z,19.67
2017-10-17T03:23:12.089Z,30.80
2017-10-17T03:25:38.371Z,27.00
2017-10-17T03:28:04.752Z,22.30
2017-10-17T03:30:31.050Z,28.77
2017-10-17T03:32:57.325Z,25.70
2017-10-17T03:35:23.605Z,30.87
2017-10-17T03:37:49.912Z,36.87
2017-10-17T03:40:16.182Z,34.13
2017-10-17T03:42:42.459Z,30.60
2017-10-17T03:45:08.782Z,34.67
2017-10-17T03:47:35.213Z,32.93
2017-10-17T03:50:01.468Z,37.00
2017-10-17T03:52:27.733Z,30.50
2017-10-17T03:54:54.007Z,44.47
2017-10-17T03:57:20.335Z,28.07
2017-10-17T03:59:46.612Z,83.33
2017-10-17T04:02:12.868Z,51.40
2017-10-17T04:04:39.170Z,37.37
2017-10-17T04:07:05.444Z,46.30
2017-10-17T04:09:31.708Z,39.93
2017-10-17T04:11:57.987Z,38.70
2017-10-17T04:14:24.295Z,44.73
2017-10-17T04:16:50.565Z,46.77
2017-10-17T04:19:16.835Z,100.13
2017-10-17T04:21:43.090Z,35.33
2017-10-17T04:24:09.379Z,43.63
2017-10-17T04:26:35.682Z,58.03
2017-10-17T04:29:01.958Z,54.40
2017-10-17T04:31:28.225Z,52.20
2017-10-17T04:33:54.515Z,87.87
2017-10-17T04:36:20.785Z,50.23
2017-10-17T04:38:47.085Z,35.20
2017-10-17T04:41:13.357Z,32.83
2017-10-17T04:43:39.629Z,49.93
2017-10-17T04:46:05.895Z,37.53
2017-10-17T04:48:32.222Z,33.47
2017-10-17T04:50:58.484Z,42.23
2017-10-17T04:53:24.744Z,31.43
2017-10-17T04:55:50.999Z,26.33
2017-10-17T04:58:17.320Z,24.60
2017-10-17T05:00:43.760Z,51.20
2017-10-17T05:03:10.197Z,22.63
2017-10-17T05:05:36.717Z,33.37
2017-10-17T05:08:03.158Z,20.47
2017-10-17T05:10:29.835Z,18.43
2017-10-17T05:12:56.289Z,19.50
2017-10-17T05:15:22.559Z,17.07
2017-10-17T05:17:48.850Z,17.13
2017-10-17T05:20:15.116Z,27.73
2017-10-17T05:22:41.381Z,27.00
2017-10-17T05:25:07.651Z,16.00
2017-10-17T05:27:33.926Z,17.60
2017-10-17T05:30:00.178Z,19.73
2017-10-17T05:32:26.518Z,28.53
2017-10-17T05:34:52.798Z,27.33
2017-10-17T05:37:19.077Z,27.33
2017-10-17T05:39:45.329Z,38.20
2017-10-17T05:42:11.584Z,22.60
2017-10-17T05:44:37.871Z,17.60
2017-10-17T05:47:04.126Z,25.23
2017-10-17T05:49:30.386Z,16.80
2017-10-17T05:51:56.661Z,31.50
2017-10-17T05:54:22.955Z,21.57
2017-10-17T05:56:49.231Z,22.07
2017-10-17T05:59:15.544Z,37.73
2017-10-17T06:47:30.519Z,26.83
2017-10-17T06:49:56.814Z,18.27
2017-10-17T06:52:23.093Z,20.70
2017-10-17T06:54:49.426Z,38.47
2017-10-17T06:57:15.704Z,28.77
2017-10-17T06:59:41.977Z,29.23
2017-10-17T07:02:08.288Z,15.17
2017-10-17T07:04:34.573Z,30.97
2017-10-17T07:07:00.806Z,24.17
2017-10-17T07:09:27.103Z,12.90
2017-10-17T07:11:53.365Z,16.20
2017-10-17T07:14:19.650Z,21.67
2017-10-17T07:16:45.958Z,27.50
2017-10-17T07:19:12.220Z,28.20
2017-10-17T07:21:38.482Z,19.97
2017-10-17T07:24:04.775Z,26.53
2017-10-17T07:26:31.041Z,20.73
2017-10-17T07:28:57.321Z,28.63
2017-10-17T07:31:23.949Z,68.40
2017-10-17T07:33:50.592Z,16.67
2017-10-17T07:36:17.239Z,22.40
2017-10-17T07:38:43.878Z,27.70
2017-10-17T07:41:10.495Z,12.70
2017-10-17T07:43:37.152Z,28.83
2017-10-17T07:46:03.654Z,13.80
2017-10-17T07:48:30.173Z,17.90
2017-10-17T07:50:56.610Z,25.53
2017-10-17T07:53:23.296Z,22.33
2017-10-17T07:55:49.941Z,20.27
2017-10-17T07:58:16.441Z,21.80
2017-10-17T08:00:42.955Z,28.23
2017-10-17T08:03:09.401Z,26.17
2017-10-17T08:05:35.844Z,15.33
2017-10-17T08:08:02.507Z,16.67
2017-10-17T08:10:29.029Z,21.70
2017-10-17T08:12:55.378Z,17.20
2017-10-17T08:15:22.018Z,19.03
2017-10-17T08:17:48.280Z,16.57
2017-10-17T08:20:14.536Z,14.23
2017-10-17T08:22:40.851Z,16.10
2017-10-17T08:25:07.142Z,17.17
2017-10-17T08:27:33.772Z,22.53
2017-10-17T08:30:00.392Z,16.13
2017-10-17T08:32:26.682Z,12.80
2017-10-17T08:34:52.952Z,10.90
2017-10-17T08:37:19.244Z,16.77
2017-10-17T08:39:45.490Z,10.30
2017-10-17T08:42:11.749Z,12.03
2017-10-17T08:44:38.047Z,9.10
2017-10-17T08:47:04.287Z,8.80
2017-10-17T08:49:30.855Z,15.50
2017-10-17T08:51:57.313Z,16.90
2017-10-17T08:54:23.988Z,28.60
2017-10-17T08:56:50.241Z,19.50
2017-10-17T08:59:16.526Z,23.90
2017-10-17T09:01:43.016Z,23.73
2017-10-17T09:04:09.628Z,16.03
2017-10-17T09:06:36.298Z,11.30
2017-10-17T09:09:02.935Z,13.50
2017-10-17T09:11:29.487Z,14.53
2017-10-17T09:13:55.973Z,15.63
2017-10-17T09:16:22.422Z,19.53
2017-10-17T09:18:48.858Z,35.50
2017-10-17T09:21:15.307Z,41.27
2017-10-17T09:23:41.827Z,37.80
2017-10-17T09:26:08.343Z,52.67
2017-10-17T09:28:35.019Z,46.80
2017-10-17T09:31:01.657Z,38.53
2017-10-17T09:33:28.300Z,54.30
2017-10-17T09:35:54.933Z,27.37
2017-10-17T09:38:21.553Z,26.37
2017-10-17T09:40:48.208Z,35.13
2017-10-17T09:43:14.837Z,26.73
2017-10-17T09:45:41.355Z,20.00
2017-10-17T09:48:07.873Z,18.57
2017-10-17T09:50:34.320Z,15.18
2017-10-17T09:53:00.788Z,15.27
2017-10-17T09:55:27.420Z,18.95
2017-10-17T09:57:54.041Z,14.07
2017-10-17T10:00:20.560Z,18.50
2017-10-17T10:02:47.004Z,23.70
2017-10-17T10:05:13.445Z,15.35
2017-10-17T10:07:39.963Z,15.82
2017-10-17T10:10:06.401Z,10.23
2017-10-17T10:12:33.272Z,11.45
2017-10-17T10:14:59.734Z,6.85
2017-10-17T10:17:26.347Z,22.37
2017-10-17T10:19:52.969Z,13.30
2017-10-17T10:22:19.628Z,9.43
2017-10-17T10:24:46.236Z,8.75
2017-10-17T10:27:12.653Z,11.63
2017-10-17T10:29:39.097Z,25.45
2017-10-17T10:32:05.763Z,11.02
2017-10-17T10:34:32.257Z,11.73
2017-10-17T10:36:58.695Z,8.45
2017-10-17T10:39:25.142Z,12.15
2017-10-17T10:41:51.701Z,14.57
2017-10-17T10:44:18.194Z,6.75
2017-10-17T10:46:44.644Z,12.65
2017-10-17T10:49:11.060Z,10.38
2017-10-17T10:51:37.602Z,19.37
2017-10-17T10:54:04.075Z,8.13
2017-10-17T10:56:30.561Z,9.55
2017-10-17T10:58:57.005Z,8.48
2017-10-17T11:01:23.449Z,8.95
2017-10-17T11:03:49.825Z,4.70
2017-10-17T11:06:16.309Z,12.68
2017-10-17T11:08:42.747Z,5.70
2017-10-17T11:11:09.268Z,12.25
2017-10-17T11:13:35.707Z,15.57
2017-10-17T11:16:02.181Z,11.23
2017-10-17T11:18:28.820Z,7.22
2017-10-17T11:20:55.474Z,8.65
2017-10-17T11:23:21.896Z,9.48
2017-10-17T11:25:48.531Z,7.03
2017-10-17T11:28:15.167Z,4.03
2017-10-17T11:30:41.782Z,6.68
2017-10-17T11:33:08.442Z,6.07
2017-10-17T11:35:34.905Z,4.60
2017-10-17T11:38:01.721Z,13.52
2017-10-17T11:40:28.360Z,7.03
2017-10-17T11:42:54.997Z,4.75
2017-10-17T11:45:21.635Z,4.10
2017-10-17T11:47:48.256Z,7.00
2017-10-17T11:50:14.918Z,6.35
2017-10-17T11:52:41.540Z,9.77
2017-10-17T11:55:08.057Z,4.78
2017-10-17T11:57:34.576Z,10.73
2017-10-17T12:00:00.919Z,17.05
2017-10-17T12:02:27.362Z,7.22
2017-10-17T12:04:53.773Z,3.20
2017-10-17T12:07:20.353Z,5.35
2017-10-17T12:09:46.988Z,3.17
2017-10-17T12:12:13.631Z,4.32
2017-10-17T12:14:40.123Z,5.50
2017-10-17T12:17:06.567Z,8.32
2017-10-17T12:19:33.137Z,8.25
2017-10-17T12:21:59.750Z,10.98
2017-10-17T12:24:26.411Z,6.03
2017-10-17T12:26:53.036Z,4.47
2017-10-17T12:29:19.686Z,7.15
2017-10-17T12:31:46.315Z,3.67
2017-10-17T12:34:12.965Z,10.98
2017-10-17T12:36:39.456Z,3.20
2017-10-17T12:39:05.899Z,2.12
2017-10-17T12:41:32.469Z,4.10
2017-10-17T12:43:59.004Z,7.20
2017-10-17T12:46:25.495Z,7.75
2017-10-17T12:48:52.093Z,5.70
2017-10-17T12:51:18.557Z,4.97
2017-10-17T12:53:45.251Z,6.40
2017-10-17T12:56:11.747Z,7.07
2017-10-17T12:58:38.182Z,3.58
2017-10-17T13:01:04.708Z,2.55
2017-10-17T13:03:31.149Z,4.85
2017-10-17T13:05:57.616Z,5.35
2017-10-17T13:08:24.108Z,5.40
2017-10-17T13:10:50.695Z,3.58
2017-10-17T13:13:17.319Z,4.50
2017-10-17T13:15:43.972Z,5.32
2017-10-17T13:18:10.604Z,3.25
2017-10-17T13:20:37.246Z,4.18
2017-10-17T13:23:04.089Z,3.12
2017-10-17T13:25:30.681Z,13.02
2017-10-17T13:27:57.125Z,2.40
2017-10-17T13:30:23.794Z,5.85
2017-10-17T13:32:50.444Z,7.13
2017-10-17T13:35:17.048Z,7.50
2017-10-17T13:37:43.710Z,14.50
2017-10-17T13:40:10.353Z,11.23
2017-10-17T13:42:36.979Z,4.40
2017-10-17T13:45:03.631Z,10.37
2017-10-17T13:47:30.266Z,5.90
2017-10-17T13:49:56.781Z,11.03
2017-10-17T13:52:23.297Z,5.20
2017-10-17T13:54:49.766Z,11.17
2017-10-17T13:57:16.405Z,9.00
2017-10-17T13:59:43.020Z,5.03
2017-10-17T14:02:09.470Z,10.73
2017-10-17T14:04:36.120Z,6.53
2017-10-17T14:07:02.752Z,8.93
2017-10-17T14:09:29.370Z,5.60
2017-10-17T14:11:55.786Z,7.37
2017-10-17T14:14:22.466Z,14.70
2017-10-17T14:16:49.106Z,14.83
2017-10-17T14:19:15.608Z,16.13
2017-10-17T14:21:42.027Z,10.13
2017-10-17T14:24:08.471Z,8.17
2017-10-17T14:26:35.012Z,12.10
2017-10-17T14:29:01.554Z,12.00
2017-10-17T14:31:27.975Z,13.43
2017-10-17T14:33:54.412Z,16.70
2017-10-17T14:36:20.830Z,25.03
2017-10-17T14:38:47.298Z,15.03
2017-10-17T14:41:13.814Z,10.50
2017-10-17T14:43:40.488Z,15.00
2017-10-17T14:46:07.129Z,20.27
2017-10-17T14:48:33.741Z,21.07
2017-10-17T14:51:00.402Z,20.40
2017-10-17T14:53:27.029Z,16.77
2017-10-17T14:55:53.672Z,21.50
2017-10-17T14:58:20.311Z,25.87
2017-10-17T15:00:46.951Z,36.23
2017-10-17T15:03:13.571Z,31.33
2017-10-17T15:05:39.986Z,36.50
2017-10-17T15:08:06.407Z,24.00
2017-10-17T15:10:32.856Z,25.43
2017-10-17T15:12:59.290Z,22.40
2017-10-17T15:15:25.709Z,42.30
2017-10-17T15:17:52.398Z,34.13
2017-10-17T15:20:18.891Z,60.20
2017-10-17T15:22:45.337Z,41.63
2017-10-17T15:25:11.923Z,40.83
2017-10-17T15:27:38.396Z,56.67
2017-10-17T15:30:04.832Z,33.47
2017-10-17T15:32:31.217Z,28.30
2017-10-17T15:34:57.836Z,63.30
2017-10-17T15:37:24.480Z,74.00
2017-10-17T15:39:51.113Z,41.70
2017-10-17T15:42:17.623Z,47.07
2017-10-17T15:44:44.191Z,26.43
2017-10-17T15:47:10.807Z,69.70
2017-10-17T15:49:37.468Z,42.87
2017-10-17T15:52:04.104Z,20.57
2017-10-17T15:54:30.633Z,29.37
2017-10-17T15:56:57.021Z,43.23
2017-10-17T15:59:23.401Z,54.50
2017-10-17T16:01:50.043Z,48.63
2017-10-17T16:04:16.679Z,39.53
2017-10-17T16:06:43.165Z,62.00
2017-10-17T16:09:09.750Z,32.00
2017-10-17T16:14:07.645Z,47.33
2017-10-17T16:16:34.167Z,36.83
2017-10-17T16:19:00.815Z,45.87
2017-10-17T16:21:27.453Z,54.17
2017-10-17T16:23:53.893Z,54.70
2017-10-17T16:26:20.404Z,30.47
2017-10-17T16:28:46.817Z,33.17
2017-10-17T16:31:13.385Z,36.13
2017-10-17T16:33:40.003Z,40.03
2017-10-17T16:36:06.268Z,33.30
2017-10-17T16:38:32.528Z,54.20
2017-10-17T16:40:58.795Z,32.77
2017-10-17T16:43:25.078Z,43.10
2017-10-17T16:45:51.353Z,42.90
2017-10-17T16:48:17.613Z,32.60
2017-10-17T16:50:43.865Z,35.50
2017-10-17T16:53:10.136Z,25.17
2017-10-17T17:00:39.645Z,46.13
2017-10-17T17:03:05.901Z,94.77
2017-10-17T17:05:32.200Z,41.50
2017-10-17T17:07:58.512Z,31.03
2017-10-17T17:10:24.846Z,38.60
2017-10-17T17:12:51.129Z,47.93
2017-10-17T17:15:17.394Z,52.33
2017-10-17T17:17:43.636Z,42.57
2017-10-17T17:20:09.938Z,41.77
2017-10-17T17:22:36.217Z,28.60
2017-10-17T17:25:02.499Z,36.47
2017-10-17T17:27:28.771Z,30.07
2017-10-17T17:29:55.014Z,40.03
2017-10-17T17:32:21.298Z,36.57
2017-10-17T17:34:47.549Z,32.60
2017-10-17T17:37:13.863Z,28.67
2017-10-17T17:39:40.233Z,42.30
2017-10-17T17:42:06.488Z,30.53
2017-10-17T17:44:32.753Z,35.83
2017-10-17T17:46:59.003Z,41.90
2017-10-17T17:49:25.258Z,39.73
2017-10-17T17:51:51.575Z,44.00
2017-10-17T17:54:17.832Z,41.87
2017-10-17T17:56:44.148Z,26.27
2017-10-17T17:59:11.402Z,48.13
2017-10-17T18:01:37.690Z,28.07
2017-10-17T18:04:04.049Z,27.53
2017-10-17T18:06:30.331Z,33.87
2017-10-17T18:08:56.671Z,29.33
2017-10-17T18:11:22.954Z,35.13
2017-10-17T18:13:49.258Z,32.17
2017-10-17T18:16:15.521Z,38.27
2017-10-17T18:18:41.818Z,40.93
2017-10-17T18:21:08.108Z,30.07
2017-10-17T18:23:34.376Z,60.57
2017-10-17T18:26:00.665Z,37.17
2017-10-17T18:28:27.015Z,35.67
2017-10-17T18:30:53.285Z,30.17
2017-10-17T18:33:19.532Z,30.80
2017-10-17T18:35:45.914Z,24.47
2017-10-17T18:38:12.154Z,39.83
2017-10-17T18:40:38.421Z,32.83
2017-10-17T18:43:04.714Z,36.70
2017-10-17T18:45:31.014Z,34.07
2017-10-17T18:47:57.280Z,26.43
2017-10-17T18:50:23.524Z,39.37
2017-10-17T18:52:49.797Z,27.10
2017-10-17T18:55:16.069Z,23.10
2017-10-17T18:57:42.355Z,35.10
2017-10-17T19:00:08.647Z,23.80
2017-10-17T19:02:34.922Z,24.97
2017-10-17T19:05:01.160Z,28.37
2017-10-17T19:07:27.430Z,36.93
2017-10-17T19:09:53.737Z,33.13
2017-10-17T19:12:20.041Z,31.40
2017-10-17T19:14:46.351Z,29.53
2017-10-17T19:17:12.614Z,49.13
2017-10-17T19:19:38.898Z,33.53
2017-10-17T19:22:05.163Z,39.13
2017-10-17T19:24:31.439Z,38.07
2017-10-17T19:26:57.716Z,29.37
2017-10-17T19:29:23.974Z,24.50
2017-10-17T19:31:50.266Z,24.33
2017-10-17T19:34:16.518Z,34.13
2017-10-17T19:36:42.774Z,39.07
2017-10-17T19:39:09.044Z,34.90
2017-10-17T19:41:35.292Z,41.73
2017-10-17T19:44:01.542Z,29.37
2017-10-17T19:46:27.983Z,42.23
2017-10-17T19:48:54.246Z,26.43
2017-10-17T19:51:20.513Z,28.10
2017-10-17T19:53:46.788Z,33.63
2017-10-17T19:56:13.098Z,30.73
2017-10-17T19:58:39.342Z,30.80
2017-10-17T20:01:05.643Z,41.87
2017-10-17T20:03:31.925Z,29.53
2017-10-17T20:05:58.196Z,31.33
2017-10-17T20:08:24.457Z,35.83
2017-10-17T20:10:50.730Z,29.47
2017-10-17T20:13:17.112Z,30.40
2017-10-17T20:15:43.365Z,40.77
2017-10-17T20:18:09.754Z,29.47
2017-10-17T20:20:36.008Z,38.10
2017-10-17T20:23:02.285Z,33.83
2017-10-17T20:25:28.546Z,33.80
2017-10-17T20:27:54.846Z,27.80
2017-10-17T20:30:21.320Z,36.20
2017-10-17T20:32:47.594Z,34.93
2017-10-17T20:35:13.984Z,26.73
2017-10-17T20:37:40.236Z,32.63
2017-10-17T20:40:06.499Z,26.27
2017-10-17T20:42:32.754Z,27.40
2017-10-17T20:44:59.745Z,35.23
2017-10-17T20:47:26.010Z,32.27
2017-10-17T20:49:52.303Z,31.60
2017-10-17T20:52:18.594Z,41.60
2017-10-17T20:54:45.067Z,33.03
2017-10-17T20:57:11.324Z,29.27
2017-10-17T20:59:37.596Z,31.50
2017-10-17T21:02:03.908Z,33.67
2017-10-17T21:04:30.159Z,30.03
2017-10-17T21:06:56.422Z,32.13
2017-10-17T21:09:22.730Z,41.00
2017-10-17T21:11:48.998Z,33.33
2017-10-17T21:14:15.316Z,27.80
2017-10-17T21:16:41.570Z,26.87
2017-10-17T21:19:07.826Z,29.50
2017-10-17T21:21:34.157Z,31.63
2017-10-17T21:24:00.415Z,33.50
2017-10-17T21:26:26.680Z,42.73
2017-10-17T21:28:52.945Z,29.00
2017-10-17T21:31:19.218Z,35.20
2017-10-17T21:33:45.492Z,28.50
2017-10-17T21:36:11.802Z,30.13
2017-10-17T21:38:38.048Z,29.13
2017-10-17T21:41:04.343Z,28.53
2017-10-17T21:43:30.615Z,37.03
2017-10-17T21:45:56.883Z,28.30
2017-10-17T21:48:23.140Z,30.90
2017-10-17T21:50:49.391Z,30.10
2017-10-17T21:53:15.644Z,27.17
2017-10-17T21:55:41.946Z,25.00
2017-10-17T21:58:08.213Z,29.93
2017-10-17T22:00:34.481Z,33.70
2017-10-17T22:03:00.773Z,34.83
2017-10-17T22:05:27.032Z,39.03
2017-10-17T22:07:53.331Z,26.40
2017-10-17T22:10:20.144Z,27.30
2017-10-17T22:12:46.422Z,45.87
2017-10-17T22:15:12.686Z,37.93
2017-10-17T22:17:38.977Z,27.43
2017-10-17T22:20:05.388Z,27.20
2017-10-17T22:22:31.653Z,34.87
2017-10-17T22:24:57.915Z,45.23
2017-10-17T22:27:24.270Z,29.57
2017-10-17T22:29:50.533Z,30.77
2017-10-17T22:32:16.793Z,28.43
2017-10-17T22:34:43.102Z,33.70
2017-10-17T22:37:09.372Z,30.50
2017-10-17T22:39:35.655Z,30.03
2017-10-17T22:42:01.932Z,33.47
2017-10-17T22:44:28.215Z,27.70
2017-10-17T22:46:54.509Z,35.13
2017-10-17T22:49:20.780Z,25.10
2017-10-17T22:51:47.057Z,25.80
2017-10-17T22:54:13.359Z,33.30
2017-10-17T22:56:39.751Z,38.87
2017-10-17T22:59:06.051Z,26.97
2017-10-17T23:01:32.298Z,25.30
2017-10-17T23:03:58.553Z,37.23
2017-10-17T23:06:24.849Z,28.63
2017-10-17T23:08:51.207Z,27.30
2017-10-17T23:11:17.477Z,26.40
2017-10-17T23:13:43.789Z,32.33
2017-10-17T23:16:10.079Z,31.43
2017-10-17T23:18:36.366Z,23.30
2017-10-17T23:21:02.664Z,28.80
2017-10-17T23:23:28.949Z,42.90
2017-10-17T23:25:55.229Z,34.93
2017-10-17T23:28:21.519Z,30.47
2017-10-17T23:30:47.807Z,24.50
2017-10-17T23:33:14.124Z,28.47
2017-10-17T23:35:40.398Z,28.63
2017-10-17T23:38:06.693Z,28.23
2017-10-17T23:40:33.013Z,28.30
2017-10-17T23:42:59.303Z,27.50
2017-10-17T23:45:25.635Z,23.30
2017-10-17T23:47:51.975Z,19.57
2017-10-17T23:50:18.266Z,28.83
2017-10-17T23:52:44.564Z,26.40
2017-10-17T23:55:10.881Z,28.97
2017-10-17T23:57:37.156Z,28.03
